Puebla, Mexico

10:44 AM CDT on April 23, 2017 (GMT -0500)
PROTECCION CIVIL MUNICIPAL PUE02 | | Change Station

Elev 6955 ft 19.07 °N, 98.25 °W | Updated 27 seconds ago

Clear
Clear
65.7 °F
Feels Like 65.7 °F
N
0.0
Wind Variable Wind from West
Gusts 1.3 mph

Today
High -- | Low -- °F
--% Chance of Precip.
Yesterday
High -- | Low -- °F
Precip. -- in
Pressure 30.33 in
Visibility 8.0 miles
Clouds Clear
Dew Point 43 °F
Humidity 43%
Rainfall 0.00 in
Snow Depth Not available.
7:10 AM 7:53 PM
Waning Crescent, 11% visible
METAR MMPB 231444Z 36006KT 8SM SKC 15/05 A3033 RMK HZY CI
Pressure 30.33 in
Visibility 8.0 miles
Clouds Clear
Dew Point 43 °F
Humidity 43%
Rainfall 0.00 in
Snow Depth Not available.
7:10 AM 7:53 PM
Waning Crescent, 11% visible
METAR MMPB 231444Z 36006KT 8SM SKC 15/05 A3033 RMK HZY CI

Get Severe Weather Alerts

Thanks for signing up!

Be on the lookout for a verification email in your inbox.

You'll start receiving the daily forecast at 8 AM.

×

10-Day Weather Forecast

No radar image for this location.
×

Almanac

Astronomy

Apr. 23, 2017 Rise Set
Actual Time
Civil Twilight
Nautical Twilight
Astronomical Twilight
Moon
Length of Visible Light
Length of Day
Tomorrow will be .
, % of the Moon is Illuminated

Today's Extremes

Country Highs Country Lows

Community

WunderPhotos

WunderBlog® & News

Nearby

Air Quality

  Air Quality AQ Index Pollutant
Not available.

Snow Depth

Station Depth Elevation

Earthquake Activity

City Distance Mag. Time & Date
Minimum magnitude displayed is 2.5.

Coastal Water Temperatures

Place Temperature

Stations

Nearby Weather Stations

Station Location Temp. Windchill Dew Point Humidity Wind Precip. Elev Updated Type